createdAt,value
2022-09-23T00:01:39.333Z,6.63
2022-09-23T00:04:07.286Z,7.83
2022-09-23T00:06:36.623Z,7.40
2022-09-23T00:09:04.955Z,7.33
2022-09-23T00:11:33.055Z,8.03
2022-09-23T00:14:01.487Z,8.83
2022-09-23T00:16:32.729Z,6.00
2022-09-23T00:19:02.038Z,10.43
2022-09-23T00:21:30.366Z,8.37
2022-09-23T00:23:59.797Z,7.00
2022-09-23T00:26:28.019Z,10.20
2022-09-23T00:28:56.032Z,11.33
2022-09-23T00:31:26.050Z,6.87
2022-09-23T00:33:55.609Z,11.10
2022-09-23T00:36:24.070Z,8.13
2022-09-23T00:38:52.150Z,12.30
2022-09-23T00:41:21.985Z,9.80
2022-09-23T00:43:51.482Z,6.63
2022-09-23T00:46:23.069Z,12.60
2022-09-23T00:48:56.672Z,7.27
2022-09-23T00:51:28.532Z,9.73
2022-09-23T00:53:57.250Z,5.80
2022-09-23T00:56:26.829Z,8.80
2022-09-23T00:58:55.496Z,5.40
2022-09-23T01:01:26.110Z,7.00
2022-09-23T01:03:55.560Z,6.77
2022-09-23T01:06:23.553Z,5.57
2022-09-23T01:08:52.066Z,4.20
2022-09-23T01:11:37.573Z,5.13
2022-09-23T01:14:22.153Z,3.10
2022-09-23T01:16:55.805Z,5.00
2022-09-23T01:19:41.137Z,7.50
2022-09-23T01:22:14.213Z,3.60
2022-09-23T01:25:08.431Z,11.90
2022-09-23T01:27:52.675Z,7.53
2022-09-23T01:30:39.153Z,10.40
2022-09-23T01:33:14.272Z,6.53
2022-09-23T01:35:56.405Z,5.30
2022-09-23T01:38:33.913Z,5.97
2022-09-23T01:41:10.336Z,6.33
2022-09-23T01:43:47.954Z,7.03
2022-09-23T01:46:21.824Z,9.83
2022-09-23T01:48:56.470Z,6.93
2022-09-23T01:51:29.164Z,5.90
2022-09-23T01:54:05.629Z,7.13
2022-09-23T01:56:38.590Z,7.40
2022-09-23T01:59:11.833Z,10.93
2022-09-23T02:01:46.947Z,7.67
2022-09-23T02:04:19.272Z,8.43
2022-09-23T02:06:52.473Z,7.30
2022-09-23T02:09:24.917Z,9.87
2022-09-23T02:11:58.888Z,8.20
2022-09-23T02:14:31.945Z,7.27
2022-09-23T02:17:04.822Z,9.40
2022-09-23T02:19:40.578Z,8.47
2022-09-23T02:22:13.790Z,10.70
2022-09-23T02:24:42.147Z,6.70
2022-09-23T02:27:19.467Z,6.40
2022-09-23T02:29:55.126Z,10.10
2022-09-23T02:32:29.332Z,8.70
2022-09-23T02:35:04.024Z,9.33
2022-09-23T02:37:43.581Z,10.77
2022-09-23T02:40:23.788Z,6.93
2022-09-23T02:43:06.308Z,6.37
2022-09-23T02:45:34.735Z,10.87
2022-09-23T02:48:08.865Z,7.03
2022-09-23T02:50:38.053Z,6.87
2022-09-23T02:53:06.617Z,7.90
2022-09-23T02:55:34.652Z,6.70
2022-09-23T02:58:05.482Z,11.87
2022-09-23T03:00:46.077Z,9.53
2022-09-23T03:03:26.999Z,8.20
2022-09-23T03:05:58.986Z,7.73
2022-09-23T03:08:39.556Z,5.50
2022-09-23T03:11:09.107Z,5.57
2022-09-23T03:13:51.150Z,6.93
2022-09-23T03:16:31.896Z,13.10
2022-09-23T03:19:16.141Z,8.43
2022-09-23T03:21:50.456Z,10.43
2022-09-23T03:24:21.247Z,14.00
2022-09-23T03:26:51.033Z,8.30
2022-09-23T03:29:21.476Z,6.00
2022-09-23T03:31:49.643Z,8.30
2022-09-23T03:34:22.433Z,6.00
2022-09-23T03:36:59.304Z,6.33
2022-09-23T03:39:36.459Z,10.00
2022-09-23T03:42:16.939Z,9.20
2022-09-23T03:44:47.041Z,10.97
2022-09-23T03:47:16.562Z,5.60
2022-09-23T03:49:48.690Z,10.67
2022-09-23T03:52:17.201Z,6.40
2022-09-23T03:54:45.339Z,8.90
2022-09-23T03:57:14.239Z,5.77
2022-09-23T03:59:42.217Z,6.00
2022-09-23T04:02:10.367Z,7.70
2022-09-23T04:04:40.304Z,6.10
2022-09-23T04:07:10.202Z,7.10
2022-09-23T04:09:38.638Z,9.57
2022-09-23T04:12:07.305Z,7.13
2022-09-23T04:14:35.597Z,8.77
2022-09-23T04:17:03.544Z,9.23
2022-09-23T04:19:31.717Z,11.33
2022-09-23T04:21:59.846Z,9.30
2022-09-23T04:24:29.354Z,11.07
2022-09-23T04:26:58.328Z,7.80
2022-09-23T04:29:27.519Z,9.90
2022-09-23T04:31:55.975Z,10.60
2022-09-23T04:34:24.047Z,7.57
2022-09-23T04:36:51.993Z,8.00
2022-09-23T04:39:20.301Z,8.23
2022-09-23T04:41:49.832Z,9.47
2022-09-23T04:44:17.843Z,10.23
2022-09-23T04:46:47.281Z,12.10
2022-09-23T04:49:15.371Z,11.60
2022-09-23T04:51:43.755Z,11.17
2022-09-23T04:54:14.533Z,10.07
2022-09-23T04:56:42.943Z,10.80
2022-09-23T04:59:12.247Z,16.17
2022-09-23T05:01:40.296Z,18.20
2022-09-23T05:04:11.704Z,14.90
2022-09-23T05:06:39.762Z,8.63
2022-09-23T05:09:09.306Z,9.70
2022-09-23T05:11:37.558Z,7.43
2022-09-23T05:14:05.661Z,11.43
2022-09-23T05:16:37.996Z,11.53
2022-09-23T05:19:06.162Z,8.33
2022-09-23T05:21:34.084Z,12.57
2022-09-23T05:24:02.456Z,8.50
2022-09-23T05:26:31.794Z,11.37
2022-09-23T05:29:00.551Z,13.23
2022-09-23T05:31:30.549Z,7.60
2022-09-23T05:34:01.807Z,6.67
2022-09-23T05:36:35.728Z,9.90
2022-09-23T05:39:06.973Z,11.20
2022-09-23T05:41:35.123Z,9.77
2022-09-23T05:44:03.387Z,11.23
2022-09-23T05:46:33.153Z,13.17
2022-09-23T05:49:04.324Z,8.07
2022-09-23T05:51:34.377Z,6.57
2022-09-23T05:54:04.386Z,14.63
2022-09-23T05:56:33.701Z,16.70
2022-09-23T05:59:02.573Z,11.83
2022-09-23T06:01:34.044Z,8.70
2022-09-23T06:04:06.113Z,8.43
2022-09-23T06:06:36.238Z,8.20
2022-09-23T06:09:04.673Z,13.33
2022-09-23T06:11:33.830Z,12.93
2022-09-23T06:14:02.745Z,9.40
2022-09-23T06:16:32.984Z,8.77
2022-09-23T06:19:05.856Z,5.33
2022-09-23T06:21:38.355Z,5.23
2022-09-23T06:24:17.985Z,5.23
2022-09-23T06:26:49.678Z,8.17
2022-09-23T06:29:18.398Z,8.37
2022-09-23T06:31:51.262Z,9.23
2022-09-23T06:34:23.012Z,8.20
2022-09-23T06:36:55.854Z,6.55
2022-09-23T06:39:25.196Z,9.40
2022-09-23T06:41:54.394Z,11.68
2022-09-23T06:44:22.709Z,13.35
2022-09-23T06:46:52.676Z,9.45
2022-09-23T06:49:23.939Z,11.10
2022-09-23T06:51:56.494Z,11.50
2022-09-23T06:54:28.483Z,9.90
2022-09-23T06:57:02.039Z,6.35
2022-09-23T06:59:37.730Z,6.85
2022-09-23T07:02:08.777Z,6.70
2022-09-23T07:04:39.719Z,8.35
2022-09-23T07:07:11.998Z,10.13
2022-09-23T07:09:43.591Z,6.72
2022-09-23T07:12:12.990Z,6.05
2022-09-23T07:14:46.900Z,6.18
2022-09-23T07:17:16.009Z,8.00
2022-09-23T07:19:46.029Z,5.90
2022-09-23T07:22:15.833Z,8.63
2022-09-23T07:24:46.908Z,14.40
2022-09-23T07:27:16.545Z,4.20
2022-09-23T07:29:48.794Z,6.07
2022-09-23T07:32:18.685Z,4.60
2022-09-23T07:34:47.507Z,7.10
2022-09-23T07:37:18.099Z,5.78
2022-09-23T07:39:46.774Z,6.47
2022-09-23T07:42:15.225Z,12.40
2022-09-23T07:44:45.490Z,9.40
2022-09-23T07:47:13.892Z,6.75
2022-09-23T07:49:44.307Z,7.85
2022-09-23T07:52:13.586Z,8.18
2022-09-23T07:54:43.561Z,6.22
2022-09-23T07:57:12.650Z,7.88
2022-09-23T07:59:40.980Z,4.80
2022-09-23T08:02:15.691Z,8.18
2022-09-23T08:04:44.304Z,11.73
2022-09-23T08:07:14.605Z,4.93
2022-09-23T08:09:46.035Z,3.58
2022-09-23T08:12:17.053Z,4.00
2022-09-23T08:14:46.167Z,3.22
2022-09-23T08:17:15.132Z,4.50
2022-09-23T08:19:54.501Z,4.60
2022-09-23T08:22:22.490Z,8.38
2022-09-23T08:24:56.183Z,5.30
2022-09-23T08:27:24.927Z,6.07
2022-09-23T08:29:52.882Z,4.13
2022-09-23T08:32:20.889Z,3.00
2022-09-23T08:34:49.182Z,3.15
2022-09-23T08:37:17.566Z,4.22
2022-09-23T08:39:45.711Z,2.92
2022-09-23T08:42:23.058Z,5.43
2022-09-23T08:44:54.516Z,4.50
2022-09-23T08:47:25.682Z,10.68
2022-09-23T08:50:00.404Z,3.20
2022-09-23T08:52:35.621Z,4.07
2022-09-23T08:55:06.201Z,2.55
2022-09-23T08:57:46.020Z,2.58
2022-09-23T09:00:24.364Z,2.45
2022-09-23T09:02:52.575Z,2.42
2022-09-23T09:05:26.435Z,3.60
2022-09-23T09:07:58.625Z,2.30
2022-09-23T09:10:31.793Z,5.10
2022-09-23T09:13:07.519Z,2.72
2022-09-23T09:15:43.709Z,2.08
2022-09-23T09:18:19.767Z,2.33
2022-09-23T09:20:57.058Z,3.50
2022-09-23T09:23:32.801Z,2.42
2022-09-23T09:26:03.162Z,3.08
2022-09-23T09:28:40.300Z,4.75
2022-09-23T09:31:24.170Z,1.77
2022-09-23T09:33:58.014Z,2.22
2022-09-23T09:36:37.376Z,3.28
2022-09-23T09:39:07.029Z,1.95
2022-09-23T09:41:35.273Z,1.48
2022-09-23T09:44:18.610Z,2.25
2022-09-23T09:47:03.020Z,2.67
2022-09-23T09:49:40.106Z,1.85
2022-09-23T09:52:30.689Z,3.00
2022-09-23T09:55:21.307Z,2.15
2022-09-23T09:57:53.674Z,1.40
2022-09-23T10:00:44.193Z,2.63
2022-09-23T10:03:33.571Z,3.22
2022-09-23T10:06:13.920Z,1.93
2022-09-23T10:08:42.080Z,1.70
2022-09-23T10:11:16.294Z,1.40
2022-09-23T10:14:01.282Z,1.80
2022-09-23T10:16:32.889Z,2.53
2022-09-23T10:19:02.374Z,2.10
2022-09-23T10:21:35.861Z,1.90
2022-09-23T10:24:06.431Z,2.37
2022-09-23T10:26:38.190Z,2.90
2022-09-23T10:29:23.896Z,3.27
2022-09-23T10:32:21.542Z,1.53
2022-09-23T10:34:53.622Z,2.60
2022-09-23T10:37:31.872Z,1.83
2022-09-23T10:40:19.101Z,2.77
2022-09-23T10:43:27.486Z,1.40
2022-09-23T10:46:16.646Z,1.83
2022-09-23T10:48:58.059Z,6.70
2022-09-23T10:51:33.343Z,1.77
2022-09-23T10:54:08.859Z,1.30
2022-09-23T10:56:41.279Z,1.73
2022-09-23T10:59:35.589Z,1.67
2022-09-23T11:02:16.224Z,2.57
2022-09-23T11:05:08.748Z,1.37
2022-09-23T11:07:41.705Z,3.80
2022-09-23T11:10:45.504Z,1.37
2022-09-23T11:13:26.088Z,1.77
2022-09-23T11:16:03.622Z,1.77
2022-09-23T11:18:58.288Z,2.17
2022-09-23T11:22:10.950Z,2.30
2022-09-23T11:25:10.056Z,2.00
2022-09-23T11:27:53.358Z,6.17
2022-09-23T11:30:22.654Z,1.60
2022-09-23T11:33:14.186Z,2.53
2022-09-23T11:35:49.381Z,2.60
2022-09-23T11:38:25.960Z,2.10
2022-09-23T11:41:00.060Z,3.40
2022-09-23T11:43:31.651Z,1.83
2022-09-23T11:46:04.177Z,1.83
2022-09-23T11:48:39.105Z,3.37
2022-09-23T11:51:16.174Z,2.10
2022-09-23T11:53:51.223Z,1.90
2022-09-23T11:56:34.826Z,4.40
2022-09-23T11:59:10.028Z,1.40
2022-09-23T12:01:45.921Z,1.50
2022-09-23T12:04:23.180Z,1.37
2022-09-23T12:06:58.130Z,1.53
2022-09-23T12:09:57.269Z,3.27
2022-09-23T12:12:31.859Z,2.40
2022-09-23T12:15:06.695Z,1.60
2022-09-23T12:17:59.627Z,5.80
2022-09-23T12:20:50.134Z,1.70
2022-09-23T12:23:34.601Z,2.80
2022-09-23T12:26:08.206Z,1.43
2022-09-23T12:28:40.267Z,1.63
2022-09-23T12:31:12.370Z,1.30
2022-09-23T12:33:41.224Z,1.50
2022-09-23T12:36:12.254Z,1.60
2022-09-23T12:38:42.753Z,2.40
2022-09-23T12:41:28.120Z,2.57
2022-09-23T12:44:14.658Z,2.37
2022-09-23T12:46:43.932Z,2.50
2022-09-23T12:49:26.294Z,1.83
2022-09-23T12:52:15.555Z,1.30
2022-09-23T12:54:45.255Z,2.40
2022-09-23T12:57:15.902Z,1.50
2022-09-23T13:00:16.484Z,2.37
2022-09-23T13:03:09.610Z,1.50
2022-09-23T13:06:03.999Z,2.27
2022-09-23T13:08:33.756Z,3.10
2022-09-23T13:11:03.939Z,1.60
2022-09-23T13:13:39.040Z,3.23
2022-09-23T13:16:15.293Z,2.63
2022-09-23T13:18:54.593Z,1.83
2022-09-23T13:21:56.095Z,1.60
2022-09-23T13:24:40.095Z,4.20
2022-09-23T13:27:27.115Z,2.07
2022-09-23T13:30:02.082Z,2.60
2022-09-23T13:32:33.699Z,2.60
2022-09-23T13:35:04.868Z,2.27
2022-09-23T13:37:42.641Z,1.53
2022-09-23T13:40:18.514Z,1.40
2022-09-23T13:42:49.674Z,2.13
2022-09-23T13:45:22.891Z,2.37
2022-09-23T13:47:52.863Z,2.13
2022-09-23T13:50:24.606Z,7.17
2022-09-23T13:52:54.844Z,2.73
2022-09-23T13:55:31.708Z,5.10
2022-09-23T13:58:02.479Z,1.70
2022-09-23T14:00:37.283Z,1.30
2022-09-23T14:03:25.050Z,3.43
2022-09-23T14:05:54.310Z,1.50
2022-09-23T14:08:22.895Z,2.67
2022-09-23T14:10:51.933Z,2.00
2022-09-23T14:13:26.059Z,1.90
2022-09-23T14:15:59.434Z,3.90
2022-09-23T14:18:36.252Z,3.23
2022-09-23T14:21:04.482Z,1.77
2022-09-23T14:23:32.619Z,4.43
2022-09-23T14:26:02.768Z,3.37
2022-09-23T14:28:31.400Z,4.80
2022-09-23T14:31:01.558Z,2.33
2022-09-23T14:33:35.004Z,1.77
2022-09-23T14:36:09.080Z,4.70
2022-09-23T14:38:51.794Z,3.77
2022-09-23T14:41:25.410Z,2.10
2022-09-23T14:43:59.002Z,2.50
2022-09-23T14:46:30.667Z,3.37
2022-09-23T14:49:03.805Z,3.97
2022-09-23T14:51:36.986Z,4.13
2022-09-23T14:54:42.584Z,1.90
2022-09-23T14:57:27.265Z,2.13
2022-09-23T14:59:57.804Z,2.93
2022-09-23T15:02:33.734Z,2.07
2022-09-23T15:05:17.581Z,6.03
2022-09-23T15:07:50.586Z,2.47
2022-09-23T15:10:23.633Z,2.60
2022-09-23T15:12:54.142Z,2.10
2022-09-23T15:15:29.091Z,1.93
2022-09-23T15:18:05.879Z,4.00
2022-09-23T15:20:35.506Z,4.03
2022-09-23T15:23:03.973Z,12.00
2022-09-23T15:25:35.572Z,3.30
2022-09-23T15:28:17.241Z,4.00
2022-09-23T15:30:46.216Z,4.73
2022-09-23T15:33:16.608Z,2.20
2022-09-23T15:35:48.800Z,5.60
2022-09-23T15:38:18.151Z,2.70
2022-09-23T15:40:46.610Z,2.60
2022-09-23T15:43:20.923Z,2.80
2022-09-23T15:45:52.309Z,3.67
2022-09-23T15:48:25.672Z,4.07
2022-09-23T15:50:54.960Z,2.00
2022-09-23T15:53:25.957Z,3.27
2022-09-23T15:55:55.089Z,1.97
2022-09-23T15:58:26.160Z,2.70
2022-09-23T16:00:57.424Z,2.60
2022-09-23T16:03:29.490Z,4.17
2022-09-23T16:06:02.498Z,3.00
2022-09-23T16:08:33.292Z,4.47
2022-09-23T16:11:01.914Z,5.23
2022-09-23T16:13:30.749Z,3.70
2022-09-23T16:15:58.864Z,5.03
2022-09-23T16:18:28.894Z,3.63
2022-09-23T16:20:58.499Z,6.73
2022-09-23T16:23:35.562Z,4.60
2022-09-23T16:26:07.707Z,3.80
2022-09-23T16:28:36.350Z,3.00
2022-09-23T16:31:04.773Z,2.10
2022-09-23T16:33:34.903Z,2.60
2022-09-23T16:36:03.676Z,2.60
2022-09-23T16:38:32.706Z,3.97
2022-09-23T16:41:01.221Z,3.80
2022-09-23T16:43:31.784Z,2.40
2022-09-23T16:46:00.146Z,4.83
2022-09-23T16:48:28.439Z,3.23
2022-09-23T16:50:57.776Z,3.20
2022-09-23T16:53:26.511Z,4.03
2022-09-23T16:55:54.531Z,2.47
2022-09-23T16:58:22.654Z,9.50
2022-09-23T17:01:08.787Z,6.37
2022-09-23T17:03:42.564Z,6.07
2022-09-23T17:06:14.038Z,7.07
2022-09-23T17:08:42.879Z,5.77
2022-09-23T17:11:11.823Z,6.57
2022-09-23T17:13:42.653Z,8.03
2022-09-23T17:16:11.896Z,10.00
2022-09-23T17:18:40.127Z,4.00
2022-09-23T17:21:08.988Z,4.53
2022-09-23T17:23:39.172Z,4.97
2022-09-23T17:26:09.817Z,8.93
2022-09-23T17:28:37.828Z,5.20
2022-09-23T17:31:08.807Z,6.33
2022-09-23T17:33:38.330Z,9.87
2022-09-23T17:36:10.251Z,11.30
2022-09-23T17:38:40.225Z,10.33
2022-09-23T17:41:09.978Z,10.43
2022-09-23T17:43:38.669Z,10.70
2022-09-23T17:46:08.672Z,12.87
2022-09-23T17:48:37.968Z,7.50
2022-09-23T17:51:08.023Z,9.27
2022-09-23T17:53:37.630Z,9.40
2022-09-23T17:56:08.728Z,14.83
2022-09-23T17:58:38.475Z,14.10
2022-09-23T18:01:09.865Z,12.80
2022-09-23T18:03:38.022Z,12.30
2022-09-23T18:06:11.501Z,12.67
2022-09-23T18:08:40.069Z,15.63
2022-09-23T18:11:20.921Z,10.00
2022-09-23T18:13:50.835Z,11.77
2022-09-23T18:16:20.096Z,11.27
2022-09-23T18:18:52.435Z,15.43
2022-09-23T18:21:21.055Z,12.00
2022-09-23T18:23:49.597Z,15.50
2022-09-23T18:26:20.090Z,17.03
2022-09-23T18:28:48.339Z,12.23
2022-09-23T18:31:16.946Z,12.33
2022-09-23T18:33:49.590Z,12.17
2022-09-23T18:36:17.750Z,11.70
2022-09-23T18:38:45.899Z,12.77
2022-09-23T18:41:14.532Z,11.73
2022-09-23T18:43:48.333Z,15.10
2022-09-23T18:46:18.232Z,11.17
2022-09-23T18:49:04.421Z,15.80
2022-09-23T18:51:34.732Z,15.90
2022-09-23T18:54:04.595Z,12.00
2022-09-23T18:56:37.306Z,11.87
2022-09-23T18:59:08.657Z,13.10
2022-09-23T19:01:37.219Z,11.70
2022-09-23T19:04:06.974Z,14.67
2022-09-23T19:06:37.463Z,11.17
2022-09-23T19:09:07.068Z,13.27
2022-09-23T19:11:36.678Z,10.40
2022-09-23T19:14:10.874Z,12.37
2022-09-23T19:16:40.906Z,12.10
2022-09-23T19:19:09.843Z,14.27
2022-09-23T19:21:38.221Z,8.20
2022-09-23T19:24:08.615Z,10.30
2022-09-23T19:26:39.164Z,7.33
2022-09-23T19:29:09.786Z,11.60
2022-09-23T19:31:40.511Z,8.67
2022-09-23T19:34:12.745Z,9.00
2022-09-23T19:36:43.294Z,7.67
2022-09-23T19:39:17.354Z,6.33
2022-09-23T19:41:45.848Z,10.10
2022-09-23T19:44:16.660Z,10.73
2022-09-23T19:46:55.051Z,9.60
2022-09-23T19:49:25.410Z,8.17
2022-09-23T19:51:55.935Z,11.60
2022-09-23T19:54:27.466Z,10.93
2022-09-23T19:56:55.907Z,8.93
2022-09-23T19:59:26.620Z,7.20
2022-09-23T20:01:55.531Z,9.73
2022-09-23T20:04:23.802Z,7.57
2022-09-23T20:06:51.822Z,10.03
2022-09-23T20:09:20.046Z,7.90
2022-09-23T20:11:48.259Z,9.67
2022-09-23T20:14:17.886Z,10.50
2022-09-23T20:16:47.422Z,15.63
2022-09-23T20:19:15.856Z,10.80
2022-09-23T20:21:44.028Z,12.37
2022-09-23T20:24:13.129Z,7.83
2022-09-23T20:26:58.819Z,9.00
2022-09-23T20:29:27.063Z,10.23
2022-09-23T20:31:58.738Z,11.70
2022-09-23T20:34:27.393Z,7.93
2022-09-23T20:36:55.578Z,16.40
2022-09-23T20:39:23.715Z,8.07
2022-09-23T20:41:52.388Z,8.30
2022-09-23T20:44:20.711Z,6.83
2022-09-23T20:46:49.693Z,6.47
2022-09-23T20:49:20.763Z,6.90
2022-09-23T20:51:49.782Z,10.33
2022-09-23T20:54:19.229Z,4.90
2022-09-23T20:56:47.332Z,6.30
2022-09-23T20:59:17.977Z,8.90
2022-09-23T21:01:47.597Z,8.40
2022-09-23T21:04:16.081Z,4.70
2022-09-23T21:06:45.473Z,6.27
2022-09-23T21:09:13.694Z,7.53
2022-09-23T21:11:41.821Z,6.77
2022-09-23T21:14:10.477Z,4.83
2022-09-23T21:16:38.985Z,8.83
2022-09-23T21:19:08.582Z,9.80
2022-09-23T21:21:37.126Z,7.97
2022-09-23T21:24:39.795Z,7.80
2022-09-23T21:26:55.195Z,9.17
2022-09-23T21:29:23.368Z,8.80
2022-09-23T21:31:51.680Z,6.60
2022-09-23T21:34:20.077Z,7.80
2022-09-23T21:36:49.117Z,9.40
2022-09-23T21:39:18.548Z,8.30
2022-09-23T21:41:46.558Z,7.03
2022-09-23T21:44:14.755Z,12.47
2022-09-23T21:46:42.941Z,6.40
2022-09-23T21:49:11.051Z,6.53
2022-09-23T21:51:41.549Z,7.90
2022-09-23T21:54:14.034Z,7.70
2022-09-23T21:56:44.371Z,9.70
2022-09-23T21:59:12.574Z,9.93
2022-09-23T22:01:43.709Z,8.23
2022-09-23T22:04:17.036Z,7.73
2022-09-23T22:06:45.657Z,7.93
2022-09-23T22:09:15.837Z,9.53
2022-09-23T22:12:03.184Z,7.47
2022-09-23T22:14:31.845Z,7.77
2022-09-23T22:17:02.282Z,9.90
2022-09-23T22:19:33.216Z,8.07
2022-09-23T22:22:01.769Z,8.13
2022-09-23T22:24:29.741Z,6.80
2022-09-23T22:26:59.157Z,8.10
2022-09-23T22:29:44.478Z,9.27
2022-09-23T22:32:30.970Z,7.03
2022-09-23T22:34:59.154Z,17.90
2022-09-23T22:37:30.427Z,9.97
2022-09-23T22:39:58.571Z,6.40
2022-09-23T22:42:28.129Z,9.17
2022-09-23T22:44:56.558Z,6.63
2022-09-23T22:47:25.066Z,9.17
2022-09-23T22:49:54.620Z,10.67
2022-09-23T22:52:24.932Z,7.57
2022-09-23T22:54:53.275Z,6.10
2022-09-23T22:57:21.607Z,6.57
2022-09-23T22:59:51.132Z,8.17
2022-09-23T23:02:21.861Z,7.90
2022-09-23T23:04:50.870Z,13.30
2022-09-23T23:07:21.591Z,9.80
2022-09-23T23:09:51.204Z,11.43
2022-09-23T23:12:20.394Z,10.50
2022-09-23T23:14:50.633Z,5.93
2022-09-23T23:17:19.057Z,4.63
2022-09-23T23:19:48.184Z,6.43
2022-09-23T23:22:16.193Z,5.80
2022-09-23T23:24:44.295Z,5.77
2022-09-23T23:27:12.217Z,5.73
2022-09-23T23:29:40.275Z,5.80
2022-09-23T23:32:09.909Z,8.37
2022-09-23T23:34:37.881Z,5.00
2022-09-23T23:37:05.870Z,7.60
2022-09-23T23:39:35.300Z,10.67
2022-09-23T23:42:04.817Z,6.03
2022-09-23T23:44:34.532Z,8.70
2022-09-23T23:47:02.954Z,7.00
2022-09-23T23:49:32.458Z,6.77
2022-09-23T23:52:00.691Z,6.33
2022-09-23T23:54:28.995Z,7.93
2022-09-23T23:56:57.499Z,5.80
2022-09-23T23:59:26.073Z,7.50
